sensor_id;sensor_type;location;lat;lon;timestamp;P1;durP1;ratioP1;P2;durP2;ratioP2
62693;SDS011;48759;52.544;13.418;2024-01-10T00:01:17;40.80;;;21.73;;
62693;SDS011;48759;52.544;13.418;2024-01-10T00:03:45;43.60;;;22.40;;
62693;SDS011;48759;52.544;13.418;2024-01-10T00:06:12;40.97;;;21.83;;
62693;SDS011;48759;52.544;13.418;2024-01-10T00:08:39;43.30;;;21.40;;
62693;SDS011;48759;52.544;13.418;2024-01-10T00:11:06;45.70;;;21.23;;
62693;SDS011;48759;52.544;13.418;2024-01-10T00:13:35;43.27;;;21.63;;
62693;SDS011;48759;52.544;13.418;2024-01-10T00:16:02;42.30;;;22.93;;
62693;SDS011;48759;52.544;13.418;2024-01-10T00:18:29;45.70;;;21.90;;
62693;SDS011;48759;52.544;13.418;2024-01-10T00:20:56;44.23;;;22.77;;
62693;SDS011;48759;52.544;13.418;2024-01-10T00:23:23;40.57;;;21.90;;
62693;SDS011;48759;52.544;13.418;2024-01-10T00:25:50;38.93;;;21.37;;
62693;SDS011;48759;52.544;13.418;2024-01-10T00:28:16;53.03;;;22.57;;
62693;SDS011;48759;52.544;13.418;2024-01-10T00:30:44;48.17;;;22.33;;
62693;SDS011;48759;52.544;13.418;2024-01-10T00:33:12;48.23;;;22.80;;
62693;SDS011;48759;52.544;13.418;2024-01-10T00:35:39;40.27;;;21.67;;
62693;SDS011;48759;52.544;13.418;2024-01-10T00:38:09;50.50;;;22.30;;
62693;SDS011;48759;52.544;13.418;2024-01-10T00:40:36;44.40;;;23.70;;
62693;SDS011;48759;52.544;13.418;2024-01-10T00:43:06;48.37;;;22.20;;
62693;SDS011;48759;52.544;13.418;2024-01-10T00:45:32;42.67;;;21.93;;
62693;SDS011;48759;52.544;13.418;2024-01-10T00:47:59;48.43;;;23.20;;
62693;SDS011;48759;52.544;13.418;2024-01-10T00:50:26;55.43;;;23.97;;
62693;SDS011;48759;52.544;13.418;2024-01-10T00:52:54;45.00;;;22.23;;
62693;SDS011;48759;52.544;13.418;2024-01-10T00:55:23;42.33;;;21.67;;
62693;SDS011;48759;52.544;13.418;2024-01-10T00:57:50;45.57;;;22.87;;
62693;SDS011;48759;52.544;13.418;2024-01-10T01:00:16;54.30;;;24.90;;
62693;SDS011;48759;52.544;13.418;2024-01-10T01:02:43;48.87;;;22.80;;
62693;SDS011;48759;52.544;13.418;2024-01-10T01:05:10;43.87;;;24.10;;
62693;SDS011;48759;52.544;13.418;2024-01-10T01:07:37;44.23;;;23.40;;
62693;SDS011;48759;52.544;13.418;2024-01-10T01:10:04;45.80;;;22.47;;
62693;SDS011;48759;52.544;13.418;2024-01-10T01:12:32;52.23;;;24.83;;
62693;SDS011;48759;52.544;13.418;2024-01-10T01:14:58;47.77;;;24.10;;
62693;SDS011;48759;52.544;13.418;2024-01-10T01:17:25;47.37;;;23.57;;
62693;SDS011;48759;52.544;13.418;2024-01-10T01:19:54;49.80;;;25.80;;
62693;SDS011;48759;52.544;13.418;2024-01-10T01:22:20;44.93;;;24.30;;
62693;SDS011;48759;52.544;13.418;2024-01-10T01:24:47;44.07;;;23.67;;
62693;SDS011;48759;52.544;13.418;2024-01-10T01:27:14;48.70;;;22.77;;
62693;SDS011;48759;52.544;13.418;2024-01-10T01:29:42;52.07;;;25.47;;
62693;SDS011;48759;52.544;13.418;2024-01-10T01:32:09;44.90;;;22.77;;
62693;SDS011;48759;52.544;13.418;2024-01-10T01:34:34;49.47;;;22.33;;
62693;SDS011;48759;52.544;13.418;2024-01-10T01:37:01;46.03;;;24.57;;
62693;SDS011;48759;52.544;13.418;2024-01-10T01:39:29;54.10;;;25.00;;
62693;SDS011;48759;52.544;13.418;2024-01-10T01:41:56;39.87;;;21.17;;
62693;SDS011;48759;52.544;13.418;2024-01-10T01:44:23;46.00;;;22.37;;
62693;SDS011;48759;52.544;13.418;2024-01-10T01:46:52;47.97;;;22.10;;
62693;SDS011;48759;52.544;13.418;2024-01-10T01:49:22;49.97;;;24.87;;
62693;SDS011;48759;52.544;13.418;2024-01-10T01:51:49;48.60;;;23.53;;
62693;SDS011;48759;52.544;13.418;2024-01-10T01:54:16;45.80;;;22.47;;
62693;SDS011;48759;52.544;13.418;2024-01-10T01:56:44;42.60;;;21.50;;
62693;SDS011;48759;52.544;13.418;2024-01-10T01:59:10;46.63;;;23.10;;
62693;SDS011;48759;52.544;13.418;2024-01-10T02:01:39;42.27;;;21.27;;
62693;SDS011;48759;52.544;13.418;2024-01-10T02:04:07;45.47;;;21.70;;
62693;SDS011;48759;52.544;13.418;2024-01-10T02:06:34;41.67;;;22.20;;
62693;SDS011;48759;52.544;13.418;2024-01-10T02:09:01;41.07;;;20.50;;
62693;SDS011;48759;52.544;13.418;2024-01-10T02:11:31;43.53;;;20.97;;
62693;SDS011;48759;52.544;13.418;2024-01-10T02:13:58;42.47;;;22.10;;
62693;SDS011;48759;52.544;13.418;2024-01-10T02:16:25;44.43;;;21.47;;
62693;SDS011;48759;52.544;13.418;2024-01-10T02:18:51;43.13;;;20.50;;
62693;SDS011;48759;52.544;13.418;2024-01-10T02:21:21;47.60;;;23.00;;
62693;SDS011;48759;52.544;13.418;2024-01-10T02:23:48;44.00;;;22.17;;
62693;SDS011;48759;52.544;13.418;2024-01-10T02:26:19;48.90;;;23.23;;
62693;SDS011;48759;52.544;13.418;2024-01-10T02:28:48;51.70;;;22.93;;
62693;SDS011;48759;52.544;13.418;2024-01-10T02:31:16;41.50;;;21.60;;
62693;SDS011;48759;52.544;13.418;2024-01-10T02:33:43;47.53;;;22.17;;
62693;SDS011;48759;52.544;13.418;2024-01-10T02:36:10;46.77;;;22.60;;
62693;SDS011;48759;52.544;13.418;2024-01-10T02:38:36;42.50;;;22.00;;
62693;SDS011;48759;52.544;13.418;2024-01-10T02:41:03;43.60;;;22.47;;
62693;SDS011;48759;52.544;13.418;2024-01-10T02:43:31;44.10;;;22.23;;
62693;SDS011;48759;52.544;13.418;2024-01-10T02:45:56;46.80;;;22.83;;
62693;SDS011;48759;52.544;13.418;2024-01-10T02:48:24;45.83;;;21.97;;
62693;SDS011;48759;52.544;13.418;2024-01-10T02:50:51;42.83;;;22.00;;
62693;SDS011;48759;52.544;13.418;2024-01-10T02:53:19;50.97;;;23.37;;
62693;SDS011;48759;52.544;13.418;2024-01-10T02:55:46;47.53;;;24.10;;
62693;SDS011;48759;52.544;13.418;2024-01-10T02:58:13;44.30;;;22.77;;
62693;SDS011;48759;52.544;13.418;2024-01-10T03:00:41;45.40;;;23.20;;
62693;SDS011;48759;52.544;13.418;2024-01-10T03:03:10;46.60;;;22.60;;
62693;SDS011;48759;52.544;13.418;2024-01-10T03:05:37;45.37;;;24.00;;
62693;SDS011;48759;52.544;13.418;2024-01-10T03:08:07;46.67;;;23.20;;
62693;SDS011;48759;52.544;13.418;2024-01-10T03:10:33;44.70;;;22.40;;
62693;SDS011;48759;52.544;13.418;2024-01-10T03:13:02;45.57;;;22.20;;
62693;SDS011;48759;52.544;13.418;2024-01-10T03:15:30;47.57;;;24.27;;
62693;SDS011;48759;52.544;13.418;2024-01-10T03:17:58;46.63;;;21.87;;
62693;SDS011;48759;52.544;13.418;2024-01-10T03:20:25;56.90;;;24.73;;
62693;SDS011;48759;52.544;13.418;2024-01-10T03:22:52;44.17;;;20.70;;
62693;SDS011;48759;52.544;13.418;2024-01-10T03:25:18;47.10;;;23.60;;
62693;SDS011;48759;52.544;13.418;2024-01-10T03:27:48;57.73;;;23.60;;
62693;SDS011;48759;52.544;13.418;2024-01-10T03:30:15;49.70;;;23.83;;
62693;SDS011;48759;52.544;13.418;2024-01-10T03:32:46;50.37;;;22.10;;
62693;SDS011;48759;52.544;13.418;2024-01-10T03:35:14;39.87;;;22.03;;
62693;SDS011;48759;52.544;13.418;2024-01-10T03:37:43;46.07;;;23.57;;
62693;SDS011;48759;52.544;13.418;2024-01-10T03:40:09;52.37;;;24.00;;
62693;SDS011;48759;52.544;13.418;2024-01-10T03:42:36;48.03;;;23.27;;
62693;SDS011;48759;52.544;13.418;2024-01-10T03:45:03;54.13;;;26.07;;
62693;SDS011;48759;52.544;13.418;2024-01-10T03:47:32;45.07;;;22.77;;
62693;SDS011;48759;52.544;13.418;2024-01-10T03:49:58;50.13;;;24.17;;
62693;SDS011;48759;52.544;13.418;2024-01-10T03:52:26;55.40;;;26.47;;
62693;SDS011;48759;52.544;13.418;2024-01-10T03:54:52;54.50;;;24.10;;
62693;SDS011;48759;52.544;13.418;2024-01-10T03:57:20;51.23;;;25.47;;
62693;SDS011;48759;52.544;13.418;2024-01-10T03:59:47;48.47;;;24.00;;
62693;SDS011;48759;52.544;13.418;2024-01-10T04:02:13;50.33;;;24.20;;
62693;SDS011;48759;52.544;13.418;2024-01-10T04:04:42;53.03;;;24.60;;
62693;SDS011;48759;52.544;13.418;2024-01-10T04:07:08;47.93;;;23.87;;
62693;SDS011;48759;52.544;13.418;2024-01-10T04:09:45;51.47;;;25.30;;
62693;SDS011;48759;52.544;13.418;2024-01-10T04:12:14;50.77;;;25.30;;
62693;SDS011;48759;52.544;13.418;2024-01-10T04:14:41;53.07;;;24.30;;
62693;SDS011;48759;52.544;13.418;2024-01-10T04:17:08;51.23;;;23.57;;
62693;SDS011;48759;52.544;13.418;2024-01-10T04:19:36;51.70;;;23.77;;
62693;SDS011;48759;52.544;13.418;2024-01-10T04:22:04;46.70;;;24.40;;
62693;SDS011;48759;52.544;13.418;2024-01-10T04:24:31;53.20;;;24.43;;
62693;SDS011;48759;52.544;13.418;2024-01-10T04:27:00;49.80;;;22.80;;
62693;SDS011;48759;52.544;13.418;2024-01-10T04:29:27;51.10;;;23.90;;
62693;SDS011;48759;52.544;13.418;2024-01-10T04:31:53;51.87;;;25.20;;
62693;SDS011;48759;52.544;13.418;2024-01-10T04:34:20;49.90;;;24.60;;
62693;SDS011;48759;52.544;13.418;2024-01-10T04:36:48;50.83;;;23.53;;
62693;SDS011;48759;52.544;13.418;2024-01-10T04:39:15;56.10;;;25.23;;
62693;SDS011;48759;52.544;13.418;2024-01-10T04:41:41;48.43;;;23.77;;
62693;SDS011;48759;52.544;13.418;2024-01-10T04:44:09;52.17;;;25.30;;
62693;SDS011;48759;52.544;13.418;2024-01-10T04:46:36;52.00;;;24.60;;
62693;SDS011;48759;52.544;13.418;2024-01-10T04:49:05;54.40;;;25.00;;
62693;SDS011;48759;52.544;13.418;2024-01-10T04:51:31;48.87;;;26.03;;
62693;SDS011;48759;52.544;13.418;2024-01-10T04:53:58;50.20;;;24.53;;
62693;SDS011;48759;52.544;13.418;2024-01-10T04:56:25;49.97;;;24.10;;
62693;SDS011;48759;52.544;13.418;2024-01-10T04:58:52;48.67;;;23.63;;
62693;SDS011;48759;52.544;13.418;2024-01-10T05:01:20;48.57;;;24.90;;
62693;SDS011;48759;52.544;13.418;2024-01-10T05:03:46;45.27;;;23.80;;
62693;SDS011;48759;52.544;13.418;2024-01-10T05:06:14;48.20;;;24.67;;
62693;SDS011;48759;52.544;13.418;2024-01-10T05:08:40;49.47;;;24.40;;
62693;SDS011;48759;52.544;13.418;2024-01-10T05:11:09;50.73;;;24.20;;
62693;SDS011;48759;52.544;13.418;2024-01-10T05:13:36;52.60;;;25.40;;
62693;SDS011;48759;52.544;13.418;2024-01-10T05:16:02;55.30;;;24.20;;
62693;SDS011;48759;52.544;13.418;2024-01-10T05:18:31;46.80;;;23.90;;
62693;SDS011;48759;52.544;13.418;2024-01-10T05:20:58;46.40;;;23.77;;
62693;SDS011;48759;52.544;13.418;2024-01-10T05:23:25;49.57;;;23.90;;
62693;SDS011;48759;52.544;13.418;2024-01-10T05:25:51;53.00;;;25.57;;
62693;SDS011;48759;52.544;13.418;2024-01-10T05:28:18;51.17;;;25.77;;
62693;SDS011;48759;52.544;13.418;2024-01-10T05:30:45;47.90;;;25.00;;
62693;SDS011;48759;52.544;13.418;2024-01-10T05:33:11;49.10;;;23.03;;
62693;SDS011;48759;52.544;13.418;2024-01-10T05:35:39;53.70;;;24.90;;
62693;SDS011;48759;52.544;13.418;2024-01-10T05:38:07;51.57;;;23.57;;
62693;SDS011;48759;52.544;13.418;2024-01-10T05:40:34;53.57;;;25.77;;
62693;SDS011;48759;52.544;13.418;2024-01-10T05:43:01;49.07;;;23.77;;
62693;SDS011;48759;52.544;13.418;2024-01-10T05:45:27;48.33;;;22.57;;
62693;SDS011;48759;52.544;13.418;2024-01-10T05:47:54;51.97;;;25.10;;
62693;SDS011;48759;52.544;13.418;2024-01-10T05:50:21;43.43;;;21.63;;
62693;SDS011;48759;52.544;13.418;2024-01-10T05:52:48;53.03;;;25.10;;
62693;SDS011;48759;52.544;13.418;2024-01-10T05:55:15;41.50;;;23.83;;
62693;SDS011;48759;52.544;13.418;2024-01-10T05:57:42;54.27;;;24.90;;
62693;SDS011;48759;52.544;13.418;2024-01-10T06:00:09;59.93;;;25.80;;
62693;SDS011;48759;52.544;13.418;2024-01-10T06:02:36;49.97;;;23.60;;
62693;SDS011;48759;52.544;13.418;2024-01-10T06:05:04;45.00;;;22.70;;
62693;SDS011;48759;52.544;13.418;2024-01-10T06:07:31;52.43;;;23.80;;
62693;SDS011;48759;52.544;13.418;2024-01-10T06:09:59;53.57;;;23.50;;
62693;SDS011;48759;52.544;13.418;2024-01-10T06:12:27;45.30;;;23.70;;
62693;SDS011;48759;52.544;13.418;2024-01-10T06:14:56;53.27;;;24.73;;
62693;SDS011;48759;52.544;13.418;2024-01-10T06:17:23;48.10;;;23.60;;
62693;SDS011;48759;52.544;13.418;2024-01-10T06:19:51;53.63;;;26.07;;
62693;SDS011;48759;52.544;13.418;2024-01-10T06:22:17;51.27;;;24.37;;
62693;SDS011;48759;52.544;13.418;2024-01-10T06:24:50;50.93;;;24.40;;
62693;SDS011;48759;52.544;13.418;2024-01-10T06:27:18;44.23;;;22.97;;
62693;SDS011;48759;52.544;13.418;2024-01-10T06:29:46;45.90;;;22.40;;
62693;SDS011;48759;52.544;13.418;2024-01-10T06:32:15;46.97;;;23.10;;
62693;SDS011;48759;52.544;13.418;2024-01-10T06:34:43;51.97;;;22.10;;
62693;SDS011;48759;52.544;13.418;2024-01-10T06:37:11;48.23;;;23.27;;
62693;SDS011;48759;52.544;13.418;2024-01-10T06:39:38;57.40;;;24.47;;
62693;SDS011;48759;52.544;13.418;2024-01-10T06:42:04;50.87;;;25.10;;
62693;SDS011;48759;52.544;13.418;2024-01-10T06:44:37;49.53;;;23.73;;
62693;SDS011;48759;52.544;13.418;2024-01-10T06:47:05;43.60;;;22.53;;
62693;SDS011;48759;52.544;13.418;2024-01-10T06:49:32;46.90;;;21.60;;
62693;SDS011;48759;52.544;13.418;2024-01-10T06:52:00;44.47;;;23.13;;
62693;SDS011;48759;52.544;13.418;2024-01-10T06:54:27;49.23;;;23.30;;
62693;SDS011;48759;52.544;13.418;2024-01-10T06:56:56;41.80;;;21.30;;
62693;SDS011;48759;52.544;13.418;2024-01-10T06:59:23;43.30;;;22.70;;
62693;SDS011;48759;52.544;13.418;2024-01-10T07:01:53;48.63;;;23.97;;
62693;SDS011;48759;52.544;13.418;2024-01-10T07:04:21;48.37;;;23.17;;
62693;SDS011;48759;52.544;13.418;2024-01-10T07:06:50;43.97;;;22.03;;
62693;SDS011;48759;52.544;13.418;2024-01-10T07:09:17;48.40;;;23.00;;
62693;SDS011;48759;52.544;13.418;2024-01-10T07:11:45;52.80;;;24.13;;
62693;SDS011;48759;52.544;13.418;2024-01-10T07:14:17;45.97;;;21.00;;
62693;SDS011;48759;52.544;13.418;2024-01-10T07:16:45;44.27;;;22.83;;
62693;SDS011;48759;52.544;13.418;2024-01-10T07:19:14;48.53;;;23.57;;
62693;SDS011;48759;52.544;13.418;2024-01-10T07:21:41;52.70;;;22.73;;
62693;SDS011;48759;52.544;13.418;2024-01-10T07:24:08;51.07;;;22.97;;
62693;SDS011;48759;52.544;13.418;2024-01-10T07:26:36;51.00;;;23.93;;
62693;SDS011;48759;52.544;13.418;2024-01-10T07:29:06;45.60;;;23.23;;
62693;SDS011;48759;52.544;13.418;2024-01-10T07:31:35;52.90;;;25.30;;
62693;SDS011;48759;52.544;13.418;2024-01-10T07:34:25;47.20;;;23.10;;
62693;SDS011;48759;52.544;13.418;2024-01-10T07:36:56;47.53;;;23.27;;
62693;SDS011;48759;52.544;13.418;2024-01-10T07:39:24;61.93;;;23.53;;
62693;SDS011;48759;52.544;13.418;2024-01-10T07:41:55;49.57;;;25.47;;
62693;SDS011;48759;52.544;13.418;2024-01-10T07:44:21;52.13;;;24.23;;
62693;SDS011;48759;52.544;13.418;2024-01-10T07:46:51;48.50;;;25.93;;
62693;SDS011;48759;52.544;13.418;2024-01-10T07:49:24;52.60;;;25.40;;
62693;SDS011;48759;52.544;13.418;2024-01-10T07:51:51;56.10;;;25.80;;
62693;SDS011;48759;52.544;13.418;2024-01-10T07:54:20;56.30;;;26.30;;
62693;SDS011;48759;52.544;13.418;2024-01-10T07:56:48;61.93;;;26.30;;
62693;SDS011;48759;52.544;13.418;2024-01-10T07:59:15;56.33;;;25.47;;
62693;SDS011;48759;52.544;13.418;2024-01-10T08:01:53;54.67;;;25.30;;
62693;SDS011;48759;52.544;13.418;2024-01-10T08:04:26;58.10;;;26.40;;
62693;SDS011;48759;52.544;13.418;2024-01-10T08:06:55;57.90;;;25.83;;
62693;SDS011;48759;52.544;13.418;2024-01-10T08:09:25;48.73;;;23.87;;
62693;SDS011;48759;52.544;13.418;2024-01-10T08:11:52;54.83;;;28.40;;
62693;SDS011;48759;52.544;13.418;2024-01-10T08:14:35;47.97;;;25.60;;
62693;SDS011;48759;52.544;13.418;2024-01-10T08:17:03;64.60;;;26.20;;
62693;SDS011;48759;52.544;13.418;2024-01-10T08:19:31;59.67;;;26.40;;
62693;SDS011;48759;52.544;13.418;2024-01-10T08:21:59;50.97;;;27.17;;
62693;SDS011;48759;52.544;13.418;2024-01-10T08:24:26;48.93;;;25.23;;
62693;SDS011;48759;52.544;13.418;2024-01-10T08:26:53;54.17;;;24.40;;
62693;SDS011;48759;52.544;13.418;2024-01-10T08:29:20;57.70;;;25.60;;
62693;SDS011;48759;52.544;13.418;2024-01-10T08:31:47;50.67;;;24.20;;
62693;SDS011;48759;52.544;13.418;2024-01-10T08:34:14;58.77;;;26.70;;
62693;SDS011;48759;52.544;13.418;2024-01-10T08:36:45;54.97;;;26.17;;
62693;SDS011;48759;52.544;13.418;2024-01-10T08:39:15;55.93;;;27.17;;
62693;SDS011;48759;52.544;13.418;2024-01-10T08:41:42;60.50;;;29.47;;
62693;SDS011;48759;52.544;13.418;2024-01-10T08:44:09;61.33;;;28.80;;
62693;SDS011;48759;52.544;13.418;2024-01-10T08:46:38;54.50;;;27.67;;
62693;SDS011;48759;52.544;13.418;2024-01-10T08:49:05;53.30;;;26.67;;
62693;SDS011;48759;52.544;13.418;2024-01-10T08:51:31;57.27;;;28.00;;
62693;SDS011;48759;52.544;13.418;2024-01-10T08:53:59;54.90;;;27.77;;
62693;SDS011;48759;52.544;13.418;2024-01-10T08:56:26;63.13;;;31.70;;
62693;SDS011;48759;52.544;13.418;2024-01-10T08:58:52;56.17;;;26.90;;
62693;SDS011;48759;52.544;13.418;2024-01-10T09:01:21;64.73;;;31.33;;
62693;SDS011;48759;52.544;13.418;2024-01-10T09:03:49;57.93;;;30.10;;
62693;SDS011;48759;52.544;13.418;2024-01-10T09:06:18;56.67;;;28.57;;
62693;SDS011;48759;52.544;13.418;2024-01-10T09:08:46;58.53;;;29.20;;
62693;SDS011;48759;52.544;13.418;2024-01-10T09:11:14;70.90;;;29.27;;
62693;SDS011;48759;52.544;13.418;2024-01-10T09:13:40;64.47;;;31.07;;
62693;SDS011;48759;52.544;13.418;2024-01-10T09:16:10;65.80;;;29.10;;
62693;SDS011;48759;52.544;13.418;2024-01-10T09:18:37;60.50;;;28.73;;
62693;SDS011;48759;52.544;13.418;2024-01-10T09:21:05;55.53;;;27.30;;
62693;SDS011;48759;52.544;13.418;2024-01-10T09:23:34;59.87;;;27.20;;
62693;SDS011;48759;52.544;13.418;2024-01-10T09:26:01;66.23;;;30.00;;
62693;SDS011;48759;52.544;13.418;2024-01-10T09:28:29;58.07;;;27.90;;
62693;SDS011;48759;52.544;13.418;2024-01-10T09:30:56;54.87;;;27.90;;
62693;SDS011;48759;52.544;13.418;2024-01-10T09:33:24;53.57;;;28.00;;
62693;SDS011;48759;52.544;13.418;2024-01-10T09:35:51;55.40;;;29.20;;
62693;SDS011;48759;52.544;13.418;2024-01-10T09:38:19;53.00;;;27.83;;
62693;SDS011;48759;52.544;13.418;2024-01-10T09:40:45;59.77;;;29.80;;
62693;SDS011;48759;52.544;13.418;2024-01-10T09:43:12;60.10;;;28.70;;
62693;SDS011;48759;52.544;13.418;2024-01-10T09:45:42;58.13;;;28.23;;
62693;SDS011;48759;52.544;13.418;2024-01-10T09:48:11;58.33;;;29.73;;
62693;SDS011;48759;52.544;13.418;2024-01-10T09:50:40;57.20;;;27.80;;
62693;SDS011;48759;52.544;13.418;2024-01-10T09:53:07;58.53;;;28.57;;
62693;SDS011;48759;52.544;13.418;2024-01-10T09:55:36;58.77;;;27.17;;
62693;SDS011;48759;52.544;13.418;2024-01-10T09:58:04;56.83;;;29.10;;
62693;SDS011;48759;52.544;13.418;2024-01-10T10:00:30;54.70;;;29.20;;
62693;SDS011;48759;52.544;13.418;2024-01-10T10:03:00;52.27;;;27.27;;
62693;SDS011;48759;52.544;13.418;2024-01-10T10:05:27;53.50;;;28.90;;
62693;SDS011;48759;52.544;13.418;2024-01-10T10:07:54;58.60;;;27.13;;
62693;SDS011;48759;52.544;13.418;2024-01-10T10:10:21;64.27;;;27.63;;
62693;SDS011;48759;52.544;13.418;2024-01-10T10:12:53;50.67;;;25.67;;
62693;SDS011;48759;52.544;13.418;2024-01-10T10:15:21;50.17;;;25.00;;
62693;SDS011;48759;52.544;13.418;2024-01-10T10:17:49;59.90;;;25.23;;
62693;SDS011;48759;52.544;13.418;2024-01-10T10:20:29;54.00;;;26.03;;
62693;SDS011;48759;52.544;13.418;2024-01-10T10:22:59;54.60;;;26.00;;
62693;SDS011;48759;52.544;13.418;2024-01-10T10:25:26;55.67;;;26.57;;
62693;SDS011;48759;52.544;13.418;2024-01-10T10:27:53;44.07;;;24.30;;
62693;SDS011;48759;52.544;13.418;2024-01-10T10:30:20;47.47;;;24.90;;
62693;SDS011;48759;52.544;13.418;2024-01-10T10:32:50;49.77;;;23.30;;
62693;SDS011;48759;52.544;13.418;2024-01-10T10:35:18;48.33;;;23.53;;
62693;SDS011;48759;52.544;13.418;2024-01-10T10:37:49;52.20;;;23.73;;
62693;SDS011;48759;52.544;13.418;2024-01-10T10:40:19;48.40;;;24.03;;
62693;SDS011;48759;52.544;13.418;2024-01-10T10:42:49;44.97;;;22.23;;
62693;SDS011;48759;52.544;13.418;2024-01-10T10:45:20;46.73;;;24.03;;
62693;SDS011;48759;52.544;13.418;2024-01-10T10:47:51;40.40;;;21.27;;
62693;SDS011;48759;52.544;13.418;2024-01-10T10:50:22;43.83;;;20.80;;
62693;SDS011;48759;52.544;13.418;2024-01-10T10:52:54;49.83;;;21.40;;
62693;SDS011;48759;52.544;13.418;2024-01-10T10:55:21;47.23;;;20.47;;
62693;SDS011;48759;52.544;13.418;2024-01-10T10:57:49;40.17;;;19.80;;
62693;SDS011;48759;52.544;13.418;2024-01-10T11:00:18;41.47;;;19.67;;
62693;SDS011;48759;52.544;13.418;2024-01-10T11:02:47;32.83;;;17.97;;
62693;SDS011;48759;52.544;13.418;2024-01-10T11:05:20;43.40;;;19.90;;
62693;SDS011;48759;52.544;13.418;2024-01-10T11:07:47;40.43;;;19.20;;
62693;SDS011;48759;52.544;13.418;2024-01-10T11:10:17;41.50;;;20.33;;
62693;SDS011;48759;52.544;13.418;2024-01-10T11:12:50;44.80;;;19.63;;
62693;SDS011;48759;52.544;13.418;2024-01-10T11:15:29;33.87;;;18.03;;
62693;SDS011;48759;52.544;13.418;2024-01-10T11:18:09;39.83;;;18.03;;
62693;SDS011;48759;52.544;13.418;2024-01-10T11:20:47;38.87;;;17.60;;
62693;SDS011;48759;52.544;13.418;2024-01-10T11:23:35;34.30;;;16.90;;
62693;SDS011;48759;52.544;13.418;2024-01-10T11:26:05;37.37;;;17.77;;
62693;SDS011;48759;52.544;13.418;2024-01-10T11:28:33;35.50;;;18.30;;
62693;SDS011;48759;52.544;13.418;2024-01-10T11:31:00;41.13;;;18.37;;
62693;SDS011;48759;52.544;13.418;2024-01-10T11:33:30;35.63;;;17.97;;
62693;SDS011;48759;52.544;13.418;2024-01-10T11:36:06;32.17;;;15.60;;
62693;SDS011;48759;52.544;13.418;2024-01-10T11:38:38;31.93;;;18.20;;
62693;SDS011;48759;52.544;13.418;2024-01-10T11:41:06;29.60;;;16.93;;
62693;SDS011;48759;52.544;13.418;2024-01-10T11:43:33;32.40;;;17.00;;
62693;SDS011;48759;52.544;13.418;2024-01-10T11:46:02;31.57;;;16.43;;
62693;SDS011;48759;52.544;13.418;2024-01-10T11:48:31;29.57;;;16.60;;
62693;SDS011;48759;52.544;13.418;2024-01-10T11:50:58;34.03;;;18.77;;
62693;SDS011;48759;52.544;13.418;2024-01-10T11:53:38;37.83;;;19.20;;
62693;SDS011;48759;52.544;13.418;2024-01-10T11:56:11;43.83;;;20.70;;
62693;SDS011;48759;52.544;13.418;2024-01-10T11:58:52;42.23;;;17.60;;
62693;SDS011;48759;52.544;13.418;2024-01-10T12:01:19;36.80;;;18.70;;
62693;SDS011;48759;52.544;13.418;2024-01-10T12:03:46;35.90;;;18.37;;
62693;SDS011;48759;52.544;13.418;2024-01-10T12:06:13;39.70;;;19.97;;
62693;SDS011;48759;52.544;13.418;2024-01-10T12:08:40;44.53;;;22.10;;
62693;SDS011;48759;52.544;13.418;2024-01-10T12:11:07;33.93;;;17.30;;
62693;SDS011;48759;52.544;13.418;2024-01-10T12:13:35;40.43;;;19.47;;
62693;SDS011;48759;52.544;13.418;2024-01-10T12:16:04;44.80;;;19.60;;
62693;SDS011;48759;52.544;13.418;2024-01-10T12:18:34;38.90;;;19.70;;
62693;SDS011;48759;52.544;13.418;2024-01-10T12:21:00;44.73;;;20.07;;
62693;SDS011;48759;52.544;13.418;2024-01-10T12:23:27;35.43;;;18.77;;
62693;SDS011;48759;52.544;13.418;2024-01-10T12:25:56;38.23;;;20.20;;
62693;SDS011;48759;52.544;13.418;2024-01-10T12:28:23;49.83;;;23.30;;
62693;SDS011;48759;52.544;13.418;2024-01-10T12:30:51;63.10;;;27.00;;
62693;SDS011;48759;52.544;13.418;2024-01-10T12:33:18;51.77;;;23.30;;
62693;SDS011;48759;52.544;13.418;2024-01-10T12:36:01;47.07;;;23.00;;
62693;SDS011;48759;52.544;13.418;2024-01-10T12:38:29;73.17;;;28.53;;
62693;SDS011;48759;52.544;13.418;2024-01-10T12:40:56;50.10;;;22.97;;
62693;SDS011;48759;52.544;13.418;2024-01-10T12:43:35;36.57;;;18.77;;
62693;SDS011;48759;52.544;13.418;2024-01-10T12:46:09;64.67;;;24.60;;
62693;SDS011;48759;52.544;13.418;2024-01-10T12:48:39;56.17;;;24.03;;
62693;SDS011;48759;52.544;13.418;2024-01-10T12:51:07;54.97;;;24.00;;
62693;SDS011;48759;52.544;13.418;2024-01-10T12:53:34;51.00;;;24.23;;
62693;SDS011;48759;52.544;13.418;2024-01-10T12:56:03;53.20;;;20.40;;
62693;SDS011;48759;52.544;13.418;2024-01-10T12:58:29;49.77;;;21.97;;
62693;SDS011;48759;52.544;13.418;2024-01-10T13:00:57;39.83;;;19.30;;
62693;SDS011;48759;52.544;13.418;2024-01-10T13:03:28;35.23;;;17.60;;
62693;SDS011;48759;52.544;13.418;2024-01-10T13:05:55;36.43;;;20.00;;
62693;SDS011;48759;52.544;13.418;2024-01-10T13:08:22;41.63;;;20.33;;
62693;SDS011;48759;52.544;13.418;2024-01-10T13:10:49;33.40;;;18.57;;
62693;SDS011;48759;52.544;13.418;2024-01-10T13:13:18;36.07;;;19.70;;
62693;SDS011;48759;52.544;13.418;2024-01-10T13:15:46;40.27;;;18.17;;
62693;SDS011;48759;52.544;13.418;2024-01-10T13:18:13;35.30;;;17.80;;
62693;SDS011;48759;52.544;13.418;2024-01-10T13:20:47;39.93;;;17.57;;
62693;SDS011;48759;52.544;13.418;2024-01-10T13:23:17;37.20;;;18.00;;
62693;SDS011;48759;52.544;13.418;2024-01-10T13:25:44;39.93;;;19.77;;
62693;SDS011;48759;52.544;13.418;2024-01-10T13:28:11;42.63;;;19.77;;
62693;SDS011;48759;52.544;13.418;2024-01-10T13:30:38;40.10;;;19.67;;
62693;SDS011;48759;52.544;13.418;2024-01-10T13:33:06;30.70;;;17.50;;
62693;SDS011;48759;52.544;13.418;2024-01-10T13:35:34;39.30;;;19.70;;
62693;SDS011;48759;52.544;13.418;2024-01-10T13:38:03;51.37;;;24.20;;
62693;SDS011;48759;52.544;13.418;2024-01-10T13:40:30;40.70;;;21.43;;
62693;SDS011;48759;52.544;13.418;2024-01-10T13:42:57;32.27;;;17.87;;
62693;SDS011;48759;52.544;13.418;2024-01-10T13:45:25;32.00;;;17.60;;
62693;SDS011;48759;52.544;13.418;2024-01-10T13:47:51;30.80;;;15.33;;
62693;SDS011;48759;52.544;13.418;2024-01-10T13:50:18;32.33;;;16.23;;
62693;SDS011;48759;52.544;13.418;2024-01-10T13:52:45;28.87;;;15.93;;
62693;SDS011;48759;52.544;13.418;2024-01-10T13:55:14;30.80;;;14.80;;
62693;SDS011;48759;52.544;13.418;2024-01-10T13:57:41;25.27;;;14.30;;
62693;SDS011;48759;52.544;13.418;2024-01-10T14:00:07;26.67;;;13.40;;
62693;SDS011;48759;52.544;13.418;2024-01-10T14:02:37;31.97;;;15.77;;
62693;SDS011;48759;52.544;13.418;2024-01-10T14:05:04;32.30;;;15.80;;
62693;SDS011;48759;52.544;13.418;2024-01-10T14:07:32;29.60;;;14.80;;
62693;SDS011;48759;52.544;13.418;2024-01-10T14:09:59;38.57;;;15.53;;
62693;SDS011;48759;52.544;13.418;2024-01-10T14:12:28;26.10;;;14.50;;
62693;SDS011;48759;52.544;13.418;2024-01-10T14:14:55;29.63;;;15.30;;